createdAt,value
2023-04-16T00:02:15.030Z,102236.34
2023-04-16T00:04:42.735Z,102235.84
2023-04-16T00:07:10.238Z,102240.75
2023-04-16T00:09:37.682Z,102236.75
2023-04-16T00:12:06.118Z,102239.59
2023-04-16T00:14:33.617Z,102241.66
2023-04-16T00:17:01.113Z,102236.59
2023-04-16T00:19:28.678Z,102228.53
2023-04-16T00:21:56.396Z,102228.84
2023-04-16T00:24:23.777Z,102240.16
2023-04-16T00:26:51.175Z,102233.97
2023-04-16T00:29:18.520Z,102229.22
2023-04-16T00:31:45.894Z,102238.44
2023-04-16T00:34:13.309Z,102232.13
2023-04-16T00:36:40.783Z,102226.28
2023-04-16T00:39:08.570Z,102236.38
2023-04-16T00:41:36.226Z,102227.72
2023-04-16T00:44:03.933Z,102233.72
2023-04-16T00:46:31.421Z,102219.09
2023-04-16T00:48:58.835Z,102226.94
2023-04-16T00:51:27.059Z,102233.09
2023-04-16T00:53:54.526Z,102234.63
2023-04-16T00:56:24.048Z,102235.44
2023-04-16T00:58:51.600Z,102242.22
2023-04-16T01:01:19.137Z,102236.94
2023-04-16T01:03:47.342Z,102229.28
2023-04-16T01:06:15.050Z,102240.28
2023-04-16T01:08:42.494Z,102229.28
2023-04-16T01:11:11.364Z,102233.63
2023-04-16T01:13:39.761Z,102235.91
2023-04-16T01:16:11.260Z,102225.06
2023-04-16T01:18:39.163Z,102237.41
2023-04-16T01:21:06.804Z,102227.97
2023-04-16T01:23:34.235Z,102235.09
2023-04-16T01:26:01.678Z,102237.16
2023-04-16T01:28:29.090Z,102240.94
2023-04-16T01:30:56.508Z,102239.16
2023-04-16T01:33:23.931Z,102226.16
2023-04-16T01:35:51.335Z,102235.94
2023-04-16T01:38:18.733Z,102233.28
2023-04-16T01:40:46.146Z,102228.25
2023-04-16T01:43:13.509Z,102235.81
2023-04-16T01:45:40.856Z,102234.94
2023-04-16T01:48:08.417Z,102238.63
2023-04-16T01:50:35.811Z,102245.38
2023-04-16T01:53:05.079Z,102232.69
2023-04-16T01:55:33.838Z,102242.78
2023-04-16T01:58:01.216Z,102238.16
2023-04-16T02:00:28.690Z,102244.41
2023-04-16T02:02:56.283Z,102239.06
2023-04-16T02:05:23.834Z,102244.91
2023-04-16T02:07:51.208Z,102241.59
2023-04-16T02:10:18.576Z,102240.03
2023-04-16T02:12:46.046Z,102238.78
2023-04-16T02:15:13.465Z,102244.47
2023-04-16T02:17:41.078Z,102235.84
2023-04-16T02:20:10.226Z,102242.44
2023-04-16T02:22:37.678Z,102248.19
2023-04-16T02:25:05.549Z,102249.84
2023-04-16T02:27:32.933Z,102241.00
2023-04-16T02:30:00.313Z,102244.47
2023-04-16T02:32:27.705Z,102246.38
2023-04-16T02:34:56.966Z,102241.63
2023-04-16T02:37:25.050Z,102248.09
2023-04-16T02:39:53.251Z,102251.56
2023-04-16T02:42:20.726Z,102250.69
2023-04-16T02:44:48.145Z,102246.22
2023-04-16T02:47:15.564Z,102255.16
2023-04-16T02:49:42.957Z,102257.41
2023-04-16T02:52:10.397Z,102242.31
2023-04-16T02:54:37.825Z,102251.00
2023-04-16T02:57:06.067Z,102262.94
2023-04-16T02:59:33.508Z,102263.63
2023-04-16T03:02:01.136Z,102249.72
2023-04-16T03:04:28.964Z,102258.34
2023-04-16T03:06:56.378Z,102268.63
2023-04-16T03:09:23.992Z,102262.66
2023-04-16T03:11:51.346Z,102261.88
2023-04-16T03:14:18.733Z,102270.75
2023-04-16T03:16:46.147Z,102266.81
2023-04-16T03:19:13.565Z,102267.97
2023-04-16T03:21:41.077Z,102276.13
2023-04-16T03:24:08.460Z,102270.03
2023-04-16T03:26:35.862Z,102267.63
2023-04-16T03:29:03.434Z,102275.09
2023-04-16T03:31:31.156Z,102273.25
2023-04-16T03:33:58.636Z,102272.25
2023-04-16T03:36:27.019Z,102277.13
2023-04-16T03:38:54.440Z,102280.50
2023-04-16T03:41:21.873Z,102267.97
2023-04-16T03:43:49.256Z,102275.53
2023-04-16T03:46:16.885Z,102277.41
2023-04-16T03:48:44.328Z,102271.59
2023-04-16T03:51:11.686Z,102279.06
2023-04-16T03:53:39.047Z,102283.78
2023-04-16T03:56:06.470Z,102283.41
2023-04-16T03:58:33.887Z,102282.19
2023-04-16T04:01:01.281Z,102281.47
2023-04-16T04:03:28.990Z,102284.81
2023-04-16T04:05:56.609Z,102293.63
2023-04-16T04:08:24.004Z,102293.53
2023-04-16T04:10:51.803Z,102284.50
2023-04-16T04:13:19.449Z,102289.81
2023-04-16T04:15:46.797Z,102284.81
2023-04-16T04:18:14.152Z,102284.59
2023-04-16T04:20:41.980Z,102289.41
2023-04-16T04:23:09.461Z,102279.59
2023-04-16T04:25:36.880Z,102280.44
2023-04-16T04:28:04.565Z,102287.41
2023-04-16T04:30:32.007Z,102287.63
2023-04-16T04:32:59.475Z,102298.59
2023-04-16T04:35:26.955Z,102288.97
2023-04-16T04:37:54.337Z,102295.81
2023-04-16T04:40:21.737Z,102298.88
2023-04-16T04:42:49.241Z,102298.75
2023-04-16T04:45:16.928Z,102300.84
2023-04-16T04:47:44.352Z,102304.34
2023-04-16T04:50:11.788Z,102306.44
2023-04-16T04:52:39.333Z,102304.06
2023-04-16T04:55:06.865Z,102307.53
2023-04-16T04:57:34.309Z,102311.06
2023-04-16T05:00:03.783Z,102309.19
2023-04-16T05:02:31.223Z,102316.31
2023-04-16T05:04:58.878Z,102309.31
2023-04-16T05:07:26.238Z,102313.63
2023-04-16T05:09:53.601Z,102314.59
2023-04-16T05:12:20.954Z,102312.47
2023-04-16T05:14:48.370Z,102317.38
2023-04-16T05:17:15.879Z,102319.94
2023-04-16T05:19:43.304Z,102311.09
2023-04-16T05:22:10.698Z,102325.16
2023-04-16T05:24:38.058Z,102315.38
2023-04-16T05:27:05.433Z,102327.88
2023-04-16T05:29:32.840Z,102323.06
2023-04-16T05:32:00.266Z,102327.63
2023-04-16T05:34:27.652Z,102332.88
2023-04-16T05:36:55.072Z,102328.69
2023-04-16T05:39:22.495Z,102323.25
2023-04-16T05:41:49.988Z,102332.59
2023-04-16T05:44:17.429Z,102329.59
2023-04-16T05:46:44.893Z,102339.16
2023-04-16T05:49:12.373Z,102345.59
2023-04-16T05:51:39.756Z,102330.25
2023-04-16T05:54:07.103Z,102326.94
2023-04-16T05:56:34.519Z,102337.44
2023-04-16T05:59:01.934Z,102335.69
2023-04-16T06:01:29.379Z,102341.47
2023-04-16T06:03:57.155Z,102341.25
2023-04-16T06:06:24.760Z,102344.19
2023-04-16T06:08:52.148Z,102345.16
2023-04-16T06:11:19.570Z,102350.09
2023-04-16T06:13:47.064Z,102352.84
2023-04-16T06:16:14.565Z,102353.47
2023-04-16T06:18:42.333Z,102354.50
2023-04-16T06:21:09.703Z,102345.16
2023-04-16T06:23:37.165Z,102339.13
2023-04-16T06:26:04.673Z,102340.66
2023-04-16T06:28:32.062Z,102353.63
2023-04-16T06:30:59.536Z,102359.16
2023-04-16T06:33:27.074Z,102354.28
2023-04-16T06:35:54.522Z,102357.38
2023-04-16T06:38:21.961Z,102356.66
2023-04-16T06:40:49.606Z,102362.56
2023-04-16T06:43:17.959Z,102367.72
2023-04-16T06:45:45.390Z,102363.38
2023-04-16T06:48:12.806Z,102367.03
2023-04-16T06:50:40.276Z,102365.28
2023-04-16T06:53:07.657Z,102371.19
2023-04-16T06:55:35.091Z,102366.16
2023-04-16T06:58:02.477Z,102369.09
2023-04-16T07:00:29.927Z,102376.53
2023-04-16T07:02:58.523Z,102370.66
2023-04-16T07:05:26.181Z,102376.59
2023-04-16T07:07:53.678Z,102371.63
2023-04-16T07:10:21.306Z,102377.66
2023-04-16T07:12:48.672Z,102377.88
2023-04-16T07:15:16.215Z,102373.13
2023-04-16T07:17:43.690Z,102377.59
2023-04-16T07:20:11.325Z,102388.34
2023-04-16T07:22:38.804Z,102391.63
2023-04-16T07:25:06.323Z,102392.66
2023-04-16T07:27:33.793Z,102390.84
2023-04-16T07:30:01.360Z,102393.34
2023-04-16T07:32:28.779Z,102389.25
2023-04-16T07:34:56.551Z,102391.72
2023-04-16T07:37:23.956Z,102394.63
2023-04-16T07:39:51.757Z,102398.56
2023-04-16T07:42:19.246Z,102392.50
2023-04-16T07:44:46.635Z,102401.53
2023-04-16T07:47:14.031Z,102403.00
2023-04-16T07:49:41.477Z,102412.00
2023-04-16T07:52:08.861Z,102408.31
2023-04-16T07:54:36.240Z,102419.59
2023-04-16T07:57:03.684Z,102415.88
2023-04-16T07:59:31.204Z,102415.59
2023-04-16T08:01:58.607Z,102411.31
2023-04-16T08:04:26.577Z,102422.00
2023-04-16T08:06:54.599Z,102422.63
2023-04-16T08:09:23.877Z,102418.97
2023-04-16T08:11:51.325Z,102405.69
2023-04-16T08:14:18.786Z,102427.75
2023-04-16T08:16:46.209Z,102435.53
2023-04-16T08:19:13.692Z,102432.88
2023-04-16T08:21:41.399Z,102434.66
2023-04-16T08:24:09.079Z,102429.84
2023-04-16T08:26:36.549Z,102441.00
2023-04-16T08:29:04.103Z,102440.59
2023-04-16T08:31:31.812Z,102438.34
2023-04-16T08:33:59.336Z,102433.84
2023-04-16T08:36:26.694Z,102437.97
2023-04-16T08:38:54.104Z,102448.38
2023-04-16T08:41:22.691Z,102446.59
2023-04-16T08:43:51.543Z,102446.03
2023-04-16T08:46:23.029Z,102449.19
2023-04-16T08:48:52.958Z,102451.41
2023-04-16T08:51:20.710Z,102457.31
2023-04-16T08:53:54.635Z,102452.59
2023-04-16T08:56:24.019Z,102467.28
2023-04-16T08:58:52.232Z,102470.31
2023-04-16T09:01:19.946Z,102468.78
2023-04-16T09:03:50.595Z,102471.44
2023-04-16T09:06:18.360Z,102474.00
2023-04-16T09:08:46.617Z,102474.25
2023-04-16T09:11:18.831Z,102473.66
2023-04-16T09:13:47.127Z,102469.28
2023-04-16T09:16:15.264Z,102474.84
2023-04-16T09:18:42.806Z,102474.63
2023-04-16T09:21:10.988Z,102469.66
2023-04-16T09:23:40.125Z,102478.38
2023-04-16T09:26:07.564Z,102476.66
2023-04-16T09:28:45.196Z,102485.41
2023-04-16T09:31:14.489Z,102484.06
2023-04-16T09:33:42.859Z,102476.84
2023-04-16T09:36:10.760Z,102487.09
2023-04-16T09:38:50.809Z,102492.41
2023-04-16T09:41:18.848Z,102492.94
2023-04-16T09:43:57.397Z,102501.41
2023-04-16T09:46:31.900Z,102501.34
2023-04-16T09:48:59.370Z,102506.22
2023-04-16T09:51:28.353Z,102502.47
2023-04-16T09:53:58.007Z,102510.50
2023-04-16T09:56:26.980Z,102504.69
2023-04-16T09:58:58.585Z,102503.22
2023-04-16T10:01:26.334Z,102502.59
2023-04-16T10:03:55.834Z,102503.72
2023-04-16T10:06:25.393Z,102508.59
2023-04-16T10:08:53.762Z,102508.00
2023-04-16T10:11:21.558Z,102508.94
2023-04-16T10:13:49.234Z,102504.69
2023-04-16T10:16:17.727Z,102510.56
2023-04-16T10:18:46.002Z,102511.38
2023-04-16T10:21:15.226Z,102508.31
2023-04-16T10:23:43.519Z,102513.19
2023-04-16T10:26:11.172Z,102509.25
2023-04-16T10:28:38.608Z,102508.78
2023-04-16T10:31:10.125Z,102510.22
2023-04-16T10:33:40.452Z,102517.22
2023-04-16T10:36:12.029Z,102509.31
2023-04-16T10:38:40.248Z,102513.88
2023-04-16T10:41:08.570Z,102514.88
2023-04-16T10:43:42.566Z,102517.50
2023-04-16T10:46:18.882Z,102516.91
2023-04-16T10:48:50.201Z,102511.41
2023-04-16T10:51:44.533Z,102521.84
2023-04-16T10:54:14.323Z,102519.56
2023-04-16T10:56:41.823Z,102519.03
2023-04-16T10:59:11.513Z,102515.72
2023-04-16T11:01:43.459Z,102512.13
2023-04-16T11:04:22.901Z,102514.06
2023-04-16T11:07:16.432Z,102515.78
2023-04-16T11:09:57.751Z,102517.28
2023-04-16T11:12:27.532Z,102521.00
2023-04-16T11:14:56.112Z,102522.66
2023-04-16T11:17:23.540Z,102524.75
2023-04-16T11:19:51.555Z,102526.25
2023-04-16T11:22:21.184Z,102523.41
2023-04-16T11:24:48.568Z,102528.03
2023-04-16T11:27:16.551Z,102527.06
2023-04-16T11:29:46.333Z,102519.94
2023-04-16T11:32:21.860Z,102525.97
2023-04-16T11:34:49.295Z,102530.53
2023-04-16T11:37:16.756Z,102520.53
2023-04-16T11:39:51.556Z,102528.03
2023-04-16T11:42:23.617Z,102533.31
2023-04-16T11:44:55.533Z,102532.56
2023-04-16T11:47:26.250Z,102528.06
2023-04-16T11:49:53.909Z,102539.16
2023-04-16T11:52:31.112Z,102534.13
2023-04-16T11:54:58.943Z,102526.47
2023-04-16T11:57:30.425Z,102533.22
2023-04-16T12:00:01.977Z,102535.09
2023-04-16T12:02:36.651Z,102540.56
2023-04-16T12:05:05.278Z,102539.94
2023-04-16T12:07:32.857Z,102551.22
2023-04-16T12:10:09.483Z,102543.25
2023-04-16T12:12:36.904Z,102543.25
2023-04-16T12:15:04.849Z,102543.94
2023-04-16T12:17:33.658Z,102550.41
2023-04-16T12:20:01.970Z,102539.25
2023-04-16T12:22:37.239Z,102537.47
2023-04-16T12:25:06.159Z,102542.78
2023-04-16T12:27:48.199Z,102538.66
2023-04-16T12:30:16.854Z,102537.94
2023-04-16T12:32:45.213Z,102537.28
2023-04-16T12:35:12.910Z,102536.03
2023-04-16T12:37:41.185Z,102538.44
2023-04-16T12:40:09.479Z,102542.69
2023-04-16T12:42:37.192Z,102536.09
2023-04-16T12:45:05.292Z,102530.94
2023-04-16T12:47:32.999Z,102541.19
2023-04-16T12:50:00.580Z,102532.13
2023-04-16T12:52:28.172Z,102534.53
2023-04-16T12:54:55.578Z,102535.75
2023-04-16T12:57:28.401Z,102542.97
2023-04-16T12:59:57.335Z,102536.28
2023-04-16T13:02:25.334Z,102539.66
2023-04-16T13:04:53.398Z,102537.22
2023-04-16T13:07:21.221Z,102530.81
2023-04-16T13:09:48.637Z,102531.19
2023-04-16T13:12:16.113Z,102539.16
2023-04-16T13:14:45.042Z,102534.53
2023-04-16T13:17:12.636Z,102530.41
2023-04-16T13:19:39.998Z,102546.88
2023-04-16T13:22:07.411Z,102533.91
2023-04-16T13:24:34.766Z,102533.03
2023-04-16T13:27:02.199Z,102538.13
2023-04-16T13:29:29.956Z,102528.34
2023-04-16T13:31:58.131Z,102534.75
2023-04-16T13:34:25.575Z,102520.97
2023-04-16T13:36:52.960Z,102530.41
2023-04-16T13:39:20.376Z,102529.47
2023-04-16T13:41:48.994Z,102534.84
2023-04-16T13:44:16.463Z,102530.53
2023-04-16T13:46:47.514Z,102524.50
2023-04-16T13:49:15.418Z,102525.34
2023-04-16T13:51:45.720Z,102524.47
2023-04-16T13:54:13.160Z,102525.38
2023-04-16T13:56:40.809Z,102521.88
2023-04-16T13:59:08.784Z,102521.88
2023-04-16T14:01:36.368Z,102521.00
2023-04-16T14:04:06.438Z,102532.50
2023-04-16T14:06:34.938Z,102527.75
2023-04-16T14:09:02.393Z,102529.75
2023-04-16T14:11:29.772Z,102521.06
2023-04-16T14:13:57.180Z,102529.88
2023-04-16T14:16:24.685Z,102534.22
2023-04-16T14:18:52.218Z,102528.06
2023-04-16T14:21:19.679Z,102529.75
2023-04-16T14:23:47.106Z,102529.81
2023-04-16T14:26:14.602Z,102522.88
2023-04-16T14:28:42.210Z,102533.22
2023-04-16T14:31:09.740Z,102528.88
2023-04-16T14:33:37.327Z,102531.19
2023-04-16T14:36:04.872Z,102532.03
2023-04-16T14:38:32.504Z,102541.44
2023-04-16T14:41:00.490Z,102539.94
2023-04-16T14:43:28.086Z,102538.19
2023-04-16T14:45:55.533Z,102537.19
2023-04-16T14:48:23.242Z,102538.81
2023-04-16T14:50:50.900Z,102534.41
2023-04-16T14:53:18.922Z,102539.91
2023-04-16T14:55:46.400Z,102536.38
2023-04-16T14:58:13.846Z,102534.66
2023-04-16T15:00:41.454Z,102539.97
2023-04-16T15:03:09.115Z,102530.28
2023-04-16T15:05:36.860Z,102533.81
2023-04-16T15:08:05.448Z,102536.22
2023-04-16T15:10:32.905Z,102539.63
2023-04-16T15:13:00.417Z,102535.13
2023-04-16T15:15:27.800Z,102536.91
2023-04-16T15:17:56.956Z,102535.97
2023-04-16T15:20:24.490Z,102540.34
2023-04-16T15:22:51.917Z,102536.06
2023-04-16T15:25:19.376Z,102534.34
2023-04-16T15:27:46.775Z,102537.78
2023-04-16T15:30:14.536Z,102533.50
2023-04-16T15:32:42.112Z,102541.34
2023-04-16T15:35:11.398Z,102537.88
2023-04-16T15:37:38.942Z,102544.31
2023-04-16T15:40:07.810Z,102536.16
2023-04-16T15:42:35.630Z,102538.00
2023-04-16T15:45:04.210Z,102534.66
2023-04-16T15:47:31.643Z,102529.16
2023-04-16T15:49:59.119Z,102538.56
2023-04-16T15:52:26.507Z,102534.50
2023-04-16T15:54:53.932Z,102529.22
2023-04-16T15:57:21.483Z,102530.97
2023-04-16T15:59:59.515Z,102528.53
2023-04-16T16:02:33.975Z,102529.25
2023-04-16T16:05:01.531Z,102531.13
2023-04-16T16:07:28.991Z,102533.84
2023-04-16T16:09:56.429Z,102538.81
2023-04-16T16:12:24.013Z,102525.78
2023-04-16T16:14:51.969Z,102525.75
2023-04-16T16:17:20.331Z,102523.19
2023-04-16T16:19:47.942Z,102519.91
2023-04-16T16:22:16.045Z,102517.84
2023-04-16T16:24:44.070Z,102522.16
2023-04-16T16:27:11.455Z,102528.44
2023-04-16T16:29:38.871Z,102525.75
2023-04-16T16:32:06.462Z,102530.94
2023-04-16T16:34:34.044Z,102531.84
2023-04-16T16:37:01.412Z,102522.25
2023-04-16T16:39:28.832Z,102528.13
2023-04-16T16:41:56.869Z,102520.38
2023-04-16T16:44:24.649Z,102529.22
2023-04-16T16:46:52.084Z,102521.31
2023-04-16T16:49:19.611Z,102520.69
2023-04-16T16:51:47.306Z,102523.31
2023-04-16T16:54:14.818Z,102530.97
2023-04-16T16:56:42.502Z,102527.25
2023-04-16T16:59:10.405Z,102522.81
2023-04-16T17:01:38.169Z,102532.41
2023-04-16T17:04:05.864Z,102527.09
2023-04-16T17:06:33.585Z,102522.13
2023-04-16T17:09:01.077Z,102529.72
2023-04-16T17:11:29.286Z,102542.69
2023-04-16T17:13:56.732Z,102540.91
2023-04-16T17:16:24.589Z,102543.53
2023-04-16T17:18:51.989Z,102549.44
2023-04-16T17:21:19.471Z,102552.69
2023-04-16T17:23:46.955Z,102552.44
2023-04-16T17:26:14.531Z,102552.63
2023-04-16T17:28:41.927Z,102547.50
2023-04-16T17:31:11.255Z,102557.47
2023-04-16T17:33:38.678Z,102557.34
2023-04-16T17:36:07.333Z,102552.28
2023-04-16T17:38:34.780Z,102561.19
2023-04-16T17:41:02.194Z,102566.50
2023-04-16T17:43:29.547Z,102557.72
2023-04-16T17:45:56.915Z,102559.09
2023-04-16T17:48:24.368Z,102571.50
2023-04-16T17:50:51.754Z,102576.44
2023-04-16T17:53:19.165Z,102580.81
2023-04-16T17:55:56.878Z,102585.19
2023-04-16T17:58:26.306Z,102577.28
2023-04-16T18:00:53.769Z,102583.38
2023-04-16T18:03:22.210Z,102584.22
2023-04-16T18:05:49.758Z,102577.97
2023-04-16T18:08:17.318Z,102583.47
2023-04-16T18:10:44.743Z,102581.75
2023-04-16T18:13:12.114Z,102589.19
2023-04-16T18:15:39.598Z,102590.59
2023-04-16T18:18:08.990Z,102597.63
2023-04-16T18:20:36.424Z,102599.25
2023-04-16T18:23:03.793Z,102611.22
2023-04-16T18:25:34.967Z,102606.88
2023-04-16T18:28:03.742Z,102599.31
2023-04-16T18:30:31.384Z,102604.53
2023-04-16T18:35:29.059Z,102616.88
2023-04-16T18:37:56.816Z,102609.72
2023-04-16T18:40:24.254Z,102617.31
2023-04-16T18:42:51.725Z,102620.97
2023-04-16T18:45:22.011Z,102625.00
2023-04-16T18:47:50.344Z,102615.50
2023-04-16T18:50:17.990Z,102620.28
2023-04-16T18:52:45.596Z,102620.19
2023-04-16T18:55:13.016Z,102625.06
2023-04-16T18:57:40.475Z,102624.13
2023-04-16T19:00:11.097Z,102626.72
2023-04-16T19:02:38.795Z,102637.72
2023-04-16T19:05:06.576Z,102641.75
2023-04-16T19:07:34.795Z,102640.38
2023-04-16T19:10:03.296Z,102647.97
2023-04-16T19:12:30.759Z,102650.09
2023-04-16T19:14:58.258Z,102646.47
2023-04-16T19:17:25.698Z,102649.75
2023-04-16T19:19:53.328Z,102613.69
2023-04-16T19:22:20.841Z,102657.63
2023-04-16T19:24:48.270Z,102654.25
2023-04-16T19:27:15.686Z,102652.84
2023-04-16T19:29:43.499Z,102659.97
2023-04-16T19:32:12.249Z,102661.44
2023-04-16T19:34:40.921Z,102650.97
2023-04-16T19:37:08.261Z,102660.78
2023-04-16T19:39:35.722Z,102659.38
2023-04-16T19:42:03.149Z,102656.06
2023-04-16T19:44:32.276Z,102667.19
2023-04-16T19:46:59.866Z,102668.16
2023-04-16T19:49:27.275Z,102660.97
2023-04-16T19:51:55.270Z,102657.34
2023-04-16T19:54:22.624Z,102657.66
2023-04-16T19:56:51.697Z,102663.47
2023-04-16T19:59:19.254Z,102653.13
2023-04-16T20:01:46.618Z,102664.81
2023-04-16T20:04:13.999Z,102653.38
2023-04-16T20:06:41.399Z,102660.16
2023-04-16T20:09:08.994Z,102659.81
2023-04-16T20:11:36.748Z,102655.69
2023-04-16T20:14:04.158Z,102660.53
2023-04-16T20:16:31.698Z,102656.53
2023-04-16T20:19:04.019Z,102657.38
2023-04-16T20:21:32.728Z,102664.91
2023-04-16T20:24:00.552Z,102657.97
2023-04-16T20:26:33.353Z,102632.97
2023-04-16T20:29:03.808Z,102658.34
2023-04-16T20:31:31.402Z,102650.78
2023-04-16T20:33:58.808Z,102649.84
2023-04-16T20:36:26.552Z,102652.72
2023-04-16T20:38:54.111Z,102657.28
2023-04-16T20:41:22.454Z,102645.22
2023-04-16T20:43:52.724Z,102658.59
2023-04-16T20:46:24.129Z,102648.59
2023-04-16T20:48:52.087Z,102647.69
2023-04-16T20:51:19.555Z,102650.06
2023-04-16T20:53:46.993Z,102636.94
2023-04-16T20:56:16.037Z,102642.94
2023-04-16T20:58:44.024Z,102641.44
2023-04-16T21:01:11.599Z,102642.94
2023-04-16T21:03:39.202Z,102635.56
2023-04-16T21:06:06.719Z,102637.66
2023-04-16T21:08:34.147Z,102637.44
2023-04-16T21:11:01.664Z,102633.94
2023-04-16T21:13:29.118Z,102631.34
2023-04-16T21:15:56.947Z,102635.56
2023-04-16T21:18:24.389Z,102637.59
2023-04-16T21:20:51.813Z,102634.41
2023-04-16T21:23:19.228Z,102633.97
2023-04-16T21:25:46.625Z,102637.59
2023-04-16T21:28:13.994Z,102636.81
2023-04-16T21:30:41.780Z,102640.16
2023-04-16T21:33:09.236Z,102638.66
2023-04-16T21:35:36.636Z,102635.59
2023-04-16T21:38:04.057Z,102630.56
2023-04-16T21:40:31.496Z,102636.78
2023-04-16T21:42:58.929Z,102645.88
2023-04-16T21:45:26.460Z,102640.97
2023-04-16T21:47:54.095Z,102641.13
2023-04-16T21:50:21.556Z,102639.94
2023-04-16T21:52:49.087Z,102652.91
2023-04-16T21:55:16.524Z,102643.00
2023-04-16T21:57:43.952Z,102643.72
2023-04-16T22:00:13.898Z,102639.56
2023-04-16T22:02:43.007Z,102644.69
2023-04-16T22:05:11.285Z,102648.59
2023-04-16T22:07:38.768Z,102633.88
2023-04-16T22:10:06.762Z,102639.19
2023-04-16T22:12:37.731Z,102630.66
2023-04-16T22:15:06.001Z,102638.53
2023-04-16T22:17:34.035Z,102625.56
2023-04-16T22:20:06.259Z,102630.25
2023-04-16T22:22:33.777Z,102631.03
2023-04-16T22:25:02.017Z,102639.81
2023-04-16T22:27:29.459Z,102628.84
2023-04-16T22:29:56.943Z,102616.53
2023-04-16T22:32:24.588Z,102627.47
2023-04-16T22:34:52.229Z,102625.72
2023-04-16T22:37:19.762Z,102636.22
2023-04-16T22:39:47.137Z,102632.81
2023-04-16T22:42:14.996Z,102631.75
2023-04-16T22:44:42.403Z,102632.00
2023-04-16T22:47:09.782Z,102630.81
2023-04-16T22:49:37.252Z,102631.34
2023-04-16T22:52:04.654Z,102637.19
2023-04-16T22:54:32.554Z,102633.06
2023-04-16T22:57:00.965Z,102638.34
2023-04-16T22:59:28.328Z,102624.47
2023-04-16T23:01:55.931Z,102619.38
2023-04-16T23:04:23.438Z,102626.84
2023-04-16T23:06:51.393Z,102630.41
2023-04-16T23:09:20.574Z,102634.94
2023-04-16T23:11:47.965Z,102639.41
2023-04-16T23:14:16.814Z,102646.09
2023-04-16T23:16:44.414Z,102640.41
2023-04-16T23:19:14.797Z,102626.53
2023-04-16T23:21:42.482Z,102636.56
2023-04-16T23:24:09.920Z,102637.84
2023-04-16T23:26:37.336Z,102633.41
2023-04-16T23:29:04.701Z,102631.81
2023-04-16T23:31:32.172Z,102638.25
2023-04-16T23:33:59.671Z,102636.44
2023-04-16T23:36:27.461Z,102647.53
2023-04-16T23:38:55.090Z,102647.69
2023-04-16T23:41:23.597Z,102642.06
2023-04-16T23:43:50.944Z,102651.72
2023-04-16T23:46:18.394Z,102655.78
2023-04-16T23:48:45.928Z,102644.38
2023-04-16T23:51:13.358Z,102648.88
2023-04-16T23:53:41.444Z,102650.56
2023-04-16T23:56:10.970Z,102650.75
2023-04-16T23:58:38.302Z,102650.88
